Terminal Aerodrome Forecast
Issued by NWS

Home | Current Version | Previous Version | Text Only | Print | Product List | Glossary On
Versions: 1 2 3 4 5 6 7 8 9 10 11 12 13 14 15
000
FTUS44 KSJT 311100 AAA
TAFSOA
TAF AMD
KSOA 311125Z 3111/0112 14009KT 4SM BR OVC008
     FM311500 13009G18KT 3SM RA BR OVC006
     FM312000 17010KT 4SM -RA BR OVC008
     FM010100 18008KT 5SM BR VCSH OVC004 PROB30 0101/0106 4SM -RA BR
      OVC007=

USA.gov is the U.S. government's official web portal to all federal, state and local government web resources and services.